createdAt,value
2017-11-19T00:02:26.624Z,3.97
2017-11-19T00:04:54.149Z,4.28
2017-11-19T00:07:22.365Z,4.12
2017-11-19T00:09:49.841Z,3.95
2017-11-19T00:12:17.314Z,3.70
2017-11-19T00:14:44.807Z,3.75
2017-11-19T00:17:13.030Z,4.18
2017-11-19T00:19:40.495Z,3.70
2017-11-19T00:22:07.946Z,4.05
2017-11-19T00:24:35.442Z,3.78
2017-11-19T00:27:03.664Z,3.90
2017-11-19T00:29:31.154Z,3.60
2017-11-19T00:31:58.621Z,3.80
2017-11-19T00:34:26.166Z,3.05
2017-11-19T00:36:53.728Z,4.20
2017-11-19T00:39:21.174Z,3.08
2017-11-19T00:41:48.642Z,3.65
2017-11-19T00:44:16.106Z,3.03
2017-11-19T00:46:43.615Z,3.28
2017-11-19T00:49:11.078Z,3.80
2017-11-19T00:51:38.538Z,3.85
2017-11-19T00:54:05.994Z,3.20
2017-11-19T00:56:33.455Z,3.40
2017-11-19T00:59:00.907Z,3.55
2017-11-19T01:01:28.395Z,2.83
2017-11-19T01:03:55.904Z,3.40
2017-11-19T01:06:23.424Z,3.05
2017-11-19T01:08:50.870Z,3.05
2017-11-19T01:11:18.368Z,3.30
2017-11-19T01:13:45.942Z,3.22
2017-11-19T01:16:13.390Z,2.90
2017-11-19T01:18:40.851Z,2.72
2017-11-19T01:21:08.299Z,3.33
2017-11-19T01:23:35.816Z,3.35
2017-11-19T01:26:03.273Z,2.95
2017-11-19T01:28:30.831Z,2.95
2017-11-19T01:30:58.284Z,3.87
2017-11-19T01:33:25.746Z,3.10
2017-11-19T01:35:53.194Z,2.80
2017-11-19T01:38:20.645Z,3.30
2017-11-19T01:40:48.925Z,2.92
2017-11-19T01:43:17.926Z,3.00
2017-11-19T01:45:45.488Z,3.85
2017-11-19T01:48:13.097Z,2.80
2017-11-19T01:50:40.560Z,3.70
2017-11-19T01:53:08.023Z,3.08
2017-11-19T01:55:35.486Z,2.97
2017-11-19T01:58:02.933Z,2.75
2017-11-19T02:00:30.398Z,2.50
2017-11-19T02:02:57.848Z,2.67
2017-11-19T02:05:25.316Z,3.15
2017-11-19T02:07:52.812Z,2.47
2017-11-19T02:10:21.062Z,2.97
2017-11-19T02:12:48.510Z,2.20
2017-11-19T02:15:15.962Z,2.40
2017-11-19T02:17:43.422Z,2.28
2017-11-19T02:20:10.890Z,3.05
2017-11-19T02:22:38.345Z,2.17
2017-11-19T02:25:05.806Z,2.35
2017-11-19T02:27:33.367Z,2.37
2017-11-19T02:30:00.814Z,2.28
2017-11-19T02:32:28.279Z,3.60
2017-11-19T02:34:55.735Z,2.83
2017-11-19T02:37:23.201Z,2.12
2017-11-19T02:39:50.681Z,2.25
2017-11-19T02:42:18.202Z,2.83
2017-11-19T02:44:45.663Z,2.10
2017-11-19T02:47:13.221Z,2.20
2017-11-19T02:49:40.681Z,2.42
2017-11-19T02:52:08.246Z,2.30
2017-11-19T02:54:35.795Z,1.90
2017-11-19T02:57:03.269Z,2.55
2017-11-19T02:59:30.802Z,2.58
2017-11-19T03:01:58.261Z,2.50
2017-11-19T03:04:25.716Z,3.28
2017-11-19T03:06:53.170Z,3.00
2017-11-19T03:09:20.632Z,3.33
2017-11-19T03:11:48.095Z,2.90
2017-11-19T03:14:15.558Z,2.67
2017-11-19T03:16:43.027Z,2.53
2017-11-19T03:19:11.246Z,2.15
2017-11-19T03:21:38.711Z,2.30
2017-11-19T03:24:06.198Z,2.33
2017-11-19T03:26:33.753Z,2.15
2017-11-19T03:29:01.220Z,1.90
2017-11-19T03:31:29.491Z,2.10
2017-11-19T03:33:57.041Z,2.03
2017-11-19T03:36:24.507Z,2.62
2017-11-19T03:38:51.963Z,2.00
2017-11-19T03:41:19.422Z,2.45
2017-11-19T03:43:46.878Z,2.90
2017-11-19T03:46:14.387Z,2.20
2017-11-19T03:48:41.892Z,2.42
2017-11-19T03:51:09.441Z,2.40
2017-11-19T03:53:37.680Z,2.20
2017-11-19T03:56:05.182Z,1.70
2017-11-19T03:58:32.747Z,2.55
2017-11-19T04:01:00.301Z,1.58
2017-11-19T04:03:27.758Z,1.83
2017-11-19T04:05:55.310Z,2.20
2017-11-19T04:08:22.762Z,1.40
2017-11-19T04:10:50.233Z,2.42
2017-11-19T04:13:17.782Z,3.10
2017-11-19T04:15:45.233Z,2.97
2017-11-19T04:18:13.472Z,1.83
2017-11-19T04:20:40.926Z,1.25
2017-11-19T04:23:08.425Z,1.60
2017-11-19T04:25:35.973Z,2.05
2017-11-19T04:28:03.434Z,2.45
2017-11-19T04:30:30.898Z,2.00
2017-11-19T04:32:58.350Z,2.78
2017-11-19T04:35:25.811Z,2.25
2017-11-19T04:37:53.269Z,1.73
2017-11-19T04:40:20.717Z,2.33
2017-11-19T04:42:48.998Z,2.28
2017-11-19T04:45:16.551Z,2.40
2017-11-19T04:47:44.116Z,3.50
2017-11-19T04:50:11.571Z,3.05
2017-11-19T04:52:39.023Z,1.95
2017-11-19T04:55:06.586Z,1.80
2017-11-19T04:57:34.208Z,1.95
2017-11-19T05:00:01.677Z,2.20
2017-11-19T05:02:29.179Z,1.90
2017-11-19T05:04:56.654Z,2.03
2017-11-19T05:07:24.893Z,2.10
2017-11-19T05:09:52.458Z,2.30
2017-11-19T05:12:19.906Z,2.58
2017-11-19T05:14:47.366Z,3.10
2017-11-19T05:17:14.922Z,2.00
2017-11-19T05:19:42.486Z,2.70
2017-11-19T05:22:09.943Z,2.10
2017-11-19T05:24:37.400Z,3.25
2017-11-19T05:27:04.858Z,2.47
2017-11-19T05:29:32.405Z,2.30
2017-11-19T05:31:59.861Z,3.20
2017-11-19T05:34:27.317Z,2.90
2017-11-19T05:36:54.779Z,2.33
2017-11-19T05:39:22.242Z,3.22
2017-11-19T05:41:50.023Z,3.05
2017-11-19T05:44:18.288Z,3.05
2017-11-19T05:46:47.258Z,2.65
2017-11-19T05:49:14.715Z,2.90
2017-11-19T05:51:42.175Z,3.35
2017-11-19T05:54:09.644Z,3.00
2017-11-19T05:56:37.202Z,3.45
2017-11-19T05:59:04.666Z,2.45
2017-11-19T06:01:32.222Z,2.72
2017-11-19T06:04:01.187Z,3.30
2017-11-19T06:06:28.657Z,3.37
2017-11-19T06:08:56.128Z,3.03
2017-11-19T06:11:23.598Z,2.75
2017-11-19T06:13:51.843Z,3.47
2017-11-19T06:16:19.298Z,2.70
2017-11-19T06:18:46.758Z,3.20
2017-11-19T06:21:14.221Z,2.80
2017-11-19T06:23:41.679Z,4.10
2017-11-19T06:26:09.345Z,2.87
2017-11-19T06:28:37.573Z,4.47
2017-11-19T06:31:05.030Z,4.80
2017-11-19T06:33:32.537Z,3.33
2017-11-19T06:35:59.987Z,2.72
2017-11-19T06:38:27.451Z,3.33
2017-11-19T06:40:55.687Z,3.47
2017-11-19T06:43:23.154Z,3.62
2017-11-19T06:45:50.602Z,3.85
2017-11-19T06:48:18.054Z,2.70
2017-11-19T06:50:45.525Z,3.33
2017-11-19T06:53:12.980Z,2.83
2017-11-19T06:55:40.430Z,2.40
2017-11-19T06:58:07.917Z,2.72
2017-11-19T07:00:35.468Z,3.75
2017-11-19T07:03:04.435Z,3.35
2017-11-19T07:05:31.925Z,4.32
2017-11-19T07:07:59.369Z,3.17
2017-11-19T07:10:26.825Z,3.25
2017-11-19T07:12:54.277Z,2.80
2017-11-19T07:15:21.742Z,3.10
2017-11-19T07:17:49.307Z,2.80
2017-11-19T07:20:16.857Z,3.40
2017-11-19T07:22:44.301Z,3.83
2017-11-19T07:25:11.758Z,3.45
2017-11-19T07:27:39.239Z,4.20
2017-11-19T07:30:06.713Z,3.50
2017-11-19T07:32:34.953Z,3.20
2017-11-19T07:35:02.413Z,3.85
2017-11-19T07:37:29.979Z,3.37
2017-11-19T07:39:57.430Z,3.25
2017-11-19T07:42:24.988Z,3.33
2017-11-19T07:44:53.217Z,3.70
2017-11-19T07:47:20.683Z,2.80
2017-11-19T07:49:48.195Z,3.55
2017-11-19T07:52:15.734Z,2.85
2017-11-19T07:54:43.197Z,3.00
2017-11-19T07:57:10.749Z,2.70
2017-11-19T07:59:38.425Z,3.92
2017-11-19T08:02:05.901Z,2.72
2017-11-19T08:04:34.142Z,2.72
2017-11-19T08:07:01.597Z,3.28
2017-11-19T08:09:29.063Z,3.15
2017-11-19T08:11:56.527Z,2.70
2017-11-19T08:14:24.001Z,2.40
2017-11-19T08:16:52.264Z,2.12
2017-11-19T08:19:19.815Z,3.25
2017-11-19T08:21:47.326Z,2.95
2017-11-19T08:24:14.786Z,2.00
2017-11-19T08:26:42.243Z,1.92
2017-11-19T08:29:09.761Z,2.50
2017-11-19T08:31:38.001Z,1.70
2017-11-19T08:34:05.461Z,2.05
2017-11-19T08:36:32.920Z,2.60
2017-11-19T08:39:00.390Z,2.65
2017-11-19T08:41:27.975Z,1.90
2017-11-19T08:43:56.215Z,2.05
2017-11-19T08:46:23.679Z,2.28
2017-11-19T08:48:51.150Z,2.00
2017-11-19T08:51:19.384Z,2.15
2017-11-19T08:53:46.840Z,1.98
2017-11-19T08:56:14.298Z,2.22
2017-11-19T08:58:41.757Z,2.12
2017-11-19T09:01:09.213Z,2.92
2017-11-19T09:03:36.751Z,2.40
2017-11-19T09:06:04.244Z,1.92
2017-11-19T09:08:31.698Z,1.65
2017-11-19T09:10:59.451Z,2.62
2017-11-19T09:13:26.910Z,1.90
2017-11-19T09:15:54.362Z,2.45
2017-11-19T09:18:21.933Z,1.62
2017-11-19T09:20:49.358Z,2.47
2017-11-19T09:23:16.811Z,1.98
2017-11-19T09:25:44.298Z,1.80
2017-11-19T09:28:11.750Z,2.53
2017-11-19T09:30:39.200Z,2.78
2017-11-19T09:33:06.671Z,1.90
2017-11-19T09:35:34.127Z,2.00
2017-11-19T09:38:01.971Z,3.15
2017-11-19T09:40:29.463Z,2.55
2017-11-19T09:42:56.927Z,2.20
2017-11-19T09:45:24.470Z,2.15
2017-11-19T09:47:51.945Z,1.40
2017-11-19T09:50:19.447Z,1.83
2017-11-19T09:52:47.010Z,1.62
2017-11-19T09:55:14.499Z,1.67
2017-11-19T09:57:41.987Z,1.87
2017-11-19T10:00:10.209Z,2.00
2017-11-19T10:02:37.667Z,2.00
2017-11-19T10:05:05.141Z,2.35
2017-11-19T10:07:32.751Z,2.45
2017-11-19T10:10:00.212Z,2.03
2017-11-19T10:12:27.666Z,2.60
2017-11-19T10:14:55.134Z,1.45
2017-11-19T10:17:22.582Z,2.03
2017-11-19T10:19:50.056Z,1.80
2017-11-19T10:22:17.514Z,1.55
2017-11-19T10:24:44.974Z,1.55
2017-11-19T10:27:12.429Z,1.37
2017-11-19T10:29:39.891Z,1.85
2017-11-19T10:32:07.334Z,1.77
2017-11-19T10:34:34.829Z,2.15
2017-11-19T10:37:02.297Z,1.90
2017-11-19T10:39:30.521Z,2.22
2017-11-19T10:41:57.982Z,2.00
2017-11-19T10:44:25.457Z,2.20
2017-11-19T10:46:52.937Z,2.47
2017-11-19T10:49:20.393Z,1.92
2017-11-19T10:51:48.623Z,1.85
2017-11-19T10:54:16.081Z,2.92
2017-11-19T10:56:43.535Z,2.33
2017-11-19T10:59:10.985Z,1.23
2017-11-19T11:01:38.503Z,2.10
2017-11-19T11:04:05.957Z,1.70
2017-11-19T11:06:33.422Z,1.60
2017-11-19T11:09:01.680Z,1.55
2017-11-19T11:11:29.151Z,1.50
2017-11-19T11:13:56.638Z,1.90
2017-11-19T11:16:24.846Z,1.37
2017-11-19T11:18:52.298Z,1.17
2017-11-19T11:21:19.774Z,1.00
2017-11-19T11:23:47.229Z,0.90
2017-11-19T11:26:14.694Z,1.20
2017-11-19T11:28:42.246Z,1.05
2017-11-19T11:31:09.800Z,1.05
2017-11-19T11:33:37.371Z,1.20
2017-11-19T11:36:04.826Z,0.90
2017-11-19T11:38:32.294Z,1.25
2017-11-19T11:40:59.784Z,1.20
2017-11-19T11:43:27.251Z,1.10
2017-11-19T11:45:54.707Z,1.08
2017-11-19T11:48:22.170Z,1.20
2017-11-19T11:50:49.626Z,1.23
2017-11-19T11:53:17.121Z,1.30
2017-11-19T11:55:44.579Z,1.58
2017-11-19T11:58:12.150Z,1.55
2017-11-19T12:00:39.757Z,1.45
2017-11-19T12:03:07.222Z,0.90
2017-11-19T12:05:34.710Z,1.55
2017-11-19T12:08:02.171Z,1.40
2017-11-19T12:10:29.632Z,0.80
2017-11-19T12:12:57.098Z,1.30
2017-11-19T12:15:24.559Z,1.50
2017-11-19T12:17:52.786Z,1.50
2017-11-19T12:20:20.336Z,1.52
2017-11-19T12:22:47.800Z,1.10
2017-11-19T12:25:15.265Z,3.35
2017-11-19T12:27:42.721Z,1.48
2017-11-19T12:30:10.202Z,2.20
2017-11-19T12:32:37.651Z,1.92
2017-11-19T12:35:05.172Z,1.35
2017-11-19T12:37:32.675Z,2.03
2017-11-19T12:40:00.942Z,1.20
2017-11-19T12:42:28.507Z,1.52
2017-11-19T12:44:56.067Z,0.75
2017-11-19T12:47:24.295Z,2.05
2017-11-19T12:49:51.802Z,1.48
2017-11-19T12:52:20.037Z,1.20
2017-11-19T12:54:47.491Z,1.40
2017-11-19T12:57:14.993Z,1.20
2017-11-19T12:59:42.450Z,1.87
2017-11-19T13:02:10.007Z,1.75
2017-11-19T13:04:37.462Z,1.65
2017-11-19T13:07:05.014Z,1.75
2017-11-19T13:09:32.480Z,1.55
2017-11-19T13:11:59.931Z,1.08
2017-11-19T13:14:27.388Z,1.27
2017-11-19T13:16:54.914Z,1.10
2017-11-19T13:19:22.411Z,0.80
2017-11-19T13:21:49.872Z,1.25
2017-11-19T13:24:18.134Z,1.20
2017-11-19T13:26:45.595Z,1.02
2017-11-19T13:29:13.056Z,0.98
2017-11-19T13:31:40.520Z,1.27
2017-11-19T13:34:08.743Z,1.25
2017-11-19T13:36:36.202Z,1.25
2017-11-19T13:39:03.680Z,1.08
2017-11-19T13:41:31.138Z,1.00
2017-11-19T13:43:58.613Z,1.40
2017-11-19T13:46:26.850Z,0.75
2017-11-19T13:48:54.305Z,2.33
2017-11-19T13:51:21.757Z,1.15
2017-11-19T13:53:49.221Z,1.70
2017-11-19T13:56:16.683Z,1.55
2017-11-19T13:58:44.145Z,1.83
2017-11-19T14:01:11.602Z,1.30
2017-11-19T14:03:39.069Z,1.40
2017-11-19T14:06:06.642Z,1.60
2017-11-19T14:08:34.186Z,1.65
2017-11-19T14:11:01.652Z,1.73
2017-11-19T14:13:29.145Z,1.20
2017-11-19T14:15:56.653Z,1.55
2017-11-19T14:18:24.145Z,2.00
2017-11-19T14:20:51.669Z,1.55
2017-11-19T14:23:19.193Z,2.25
2017-11-19T14:25:46.664Z,1.48
2017-11-19T14:28:14.152Z,1.10
2017-11-19T14:30:41.619Z,1.05
2017-11-19T14:33:09.830Z,1.50
2017-11-19T14:35:37.344Z,2.20
2017-11-19T14:38:04.803Z,1.23
2017-11-19T14:40:32.269Z,3.40
2017-11-19T14:43:00.526Z,1.70
2017-11-19T14:45:27.987Z,2.00
2017-11-19T14:47:55.434Z,1.45
2017-11-19T14:50:22.994Z,0.93
2017-11-19T14:52:50.468Z,1.62
2017-11-19T14:55:18.731Z,1.50
2017-11-19T14:57:46.288Z,1.58
2017-11-19T15:00:13.747Z,1.00
2017-11-19T15:02:41.202Z,1.17
2017-11-19T15:05:08.662Z,1.10
2017-11-19T15:07:36.277Z,1.23
2017-11-19T15:10:03.732Z,1.70
2017-11-19T15:12:31.293Z,1.00
2017-11-19T15:14:58.747Z,1.42
2017-11-19T15:17:26.227Z,1.33
2017-11-19T15:19:53.773Z,1.25
2017-11-19T15:22:21.263Z,1.08
2017-11-19T15:24:48.718Z,0.75
2017-11-19T15:27:16.187Z,0.75
2017-11-19T15:29:43.638Z,0.77
2017-11-19T15:32:11.090Z,0.88
2017-11-19T15:34:38.646Z,0.80
2017-11-19T15:37:06.122Z,1.00
2017-11-19T15:39:33.722Z,0.93
2017-11-19T15:42:01.186Z,0.88
2017-11-19T15:44:28.664Z,1.00
2017-11-19T15:46:56.240Z,1.02
2017-11-19T15:49:23.689Z,1.17
2017-11-19T15:51:51.138Z,1.40
2017-11-19T15:54:18.611Z,1.25
2017-11-19T15:56:46.069Z,1.10
2017-11-19T15:59:13.532Z,1.00
2017-11-19T16:01:41.900Z,1.12
2017-11-19T16:04:09.479Z,1.70
2017-11-19T16:06:37.767Z,1.85
2017-11-19T16:09:05.995Z,1.30
2017-11-19T16:11:33.527Z,1.90
2017-11-19T16:14:01.018Z,1.35
2017-11-19T16:16:28.470Z,2.12
2017-11-19T16:18:56.045Z,1.52
2017-11-19T16:21:23.657Z,1.60
2017-11-19T16:23:51.173Z,1.23
2017-11-19T16:26:18.629Z,1.65
2017-11-19T16:28:46.205Z,1.60
2017-11-19T16:31:14.609Z,1.90
2017-11-19T16:33:42.128Z,1.75
2017-11-19T16:36:10.355Z,1.25
2017-11-19T16:38:37.834Z,1.83
2017-11-19T16:41:05.309Z,1.50
2017-11-19T16:43:32.789Z,1.52
2017-11-19T16:46:00.297Z,1.60
2017-11-19T16:48:27.779Z,1.40
2017-11-19T16:50:56.013Z,1.58
2017-11-19T16:53:24.073Z,1.60
2017-11-19T16:55:51.562Z,1.15
2017-11-19T16:58:19.010Z,1.65
2017-11-19T17:00:46.748Z,1.75
2017-11-19T17:03:14.222Z,1.58
2017-11-19T17:05:41.686Z,1.50
2017-11-19T17:08:09.140Z,1.60
2017-11-19T17:10:36.594Z,2.05
2017-11-19T17:13:04.051Z,0.70
2017-11-19T17:15:31.533Z,0.80
2017-11-19T17:17:58.982Z,1.10
2017-11-19T17:20:26.511Z,0.80
2017-11-19T17:22:54.188Z,1.20
2017-11-19T17:25:21.916Z,1.02
2017-11-19T17:27:49.380Z,1.35
2017-11-19T17:30:16.839Z,1.10
2017-11-19T17:32:44.335Z,1.10
2017-11-19T17:35:11.793Z,0.80
2017-11-19T17:37:39.350Z,1.50
2017-11-19T17:40:06.806Z,1.50
2017-11-19T17:42:34.268Z,1.20
2017-11-19T17:45:01.724Z,1.35
2017-11-19T17:47:29.183Z,1.27
2017-11-19T17:49:56.648Z,1.30
2017-11-19T17:52:24.206Z,1.95
2017-11-19T17:54:51.650Z,1.25
2017-11-19T17:57:19.115Z,1.60
2017-11-19T17:59:46.727Z,1.48
2017-11-19T18:02:14.220Z,1.42
2017-11-19T18:04:41.777Z,1.55
2017-11-19T18:07:09.236Z,1.10
2017-11-19T18:09:36.803Z,1.60
2017-11-19T18:12:04.265Z,2.55
2017-11-19T18:14:31.877Z,1.20
2017-11-19T18:16:59.333Z,1.92
2017-11-19T18:19:26.790Z,2.00
2017-11-19T18:21:54.270Z,2.35
2017-11-19T18:24:21.730Z,1.30
2017-11-19T18:26:49.190Z,1.15
2017-11-19T18:29:16.660Z,1.67
2017-11-19T18:31:44.213Z,1.60
2017-11-19T18:34:11.679Z,1.67
2017-11-19T18:36:39.130Z,2.35
2017-11-19T18:39:06.614Z,1.30
2017-11-19T18:41:34.843Z,1.42
2017-11-19T18:44:02.312Z,1.40
2017-11-19T18:46:29.798Z,1.30
2017-11-19T18:48:58.109Z,1.62
2017-11-19T18:51:25.672Z,1.30
2017-11-19T18:53:53.118Z,1.40
2017-11-19T18:56:20.573Z,1.58
2017-11-19T18:58:48.138Z,1.33
2017-11-19T19:01:15.592Z,1.27
2017-11-19T19:03:43.096Z,1.58
2017-11-19T19:06:10.573Z,1.73
2017-11-19T19:08:38.800Z,2.87
2017-11-19T19:11:06.270Z,5.05
2017-11-19T19:13:33.738Z,2.00
2017-11-19T19:16:01.219Z,6.45
2017-11-19T19:18:29.439Z,2.20
2017-11-19T19:20:56.903Z,1.80
2017-11-19T19:23:24.362Z,1.70
2017-11-19T19:25:51.856Z,1.50
2017-11-19T19:28:20.121Z,1.58
2017-11-19T19:30:47.641Z,2.58
2017-11-19T19:33:15.137Z,1.50
2017-11-19T19:35:42.594Z,1.70
2017-11-19T19:38:10.072Z,1.87
2017-11-19T19:40:38.326Z,1.30
2017-11-19T19:43:05.840Z,1.73
2017-11-19T19:45:33.301Z,1.50
2017-11-19T19:48:00.798Z,1.90
2017-11-19T19:50:28.252Z,1.60
2017-11-19T19:52:55.766Z,1.80
2017-11-19T19:55:23.218Z,1.10
2017-11-19T19:57:50.671Z,1.40
2017-11-19T20:00:18.278Z,1.50
2017-11-19T20:02:45.738Z,1.90
2017-11-19T20:05:13.195Z,2.10
2017-11-19T20:07:40.650Z,1.80
2017-11-19T20:10:08.268Z,1.60
2017-11-19T20:12:35.767Z,1.95
2017-11-19T20:15:03.237Z,1.75
2017-11-19T20:17:30.708Z,1.98
2017-11-19T20:19:58.938Z,6.43
2017-11-19T20:22:26.414Z,1.52
2017-11-19T20:24:53.876Z,1.52
2017-11-19T20:27:21.343Z,1.33
2017-11-19T20:29:49.586Z,1.45
2017-11-19T20:32:17.053Z,1.40
2017-11-19T20:34:44.506Z,0.93
2017-11-19T20:37:11.980Z,1.05
2017-11-19T20:39:40.248Z,2.05
2017-11-19T20:42:09.225Z,1.33
2017-11-19T20:44:36.695Z,1.10
2017-11-19T20:47:04.962Z,1.02
2017-11-19T20:49:32.486Z,1.42
2017-11-19T20:51:59.950Z,1.00
2017-11-19T20:54:27.445Z,0.90
2017-11-19T20:56:55.011Z,1.00
2017-11-19T20:59:22.515Z,1.20
2017-11-19T21:01:50.011Z,0.90
2017-11-19T21:04:17.565Z,1.00
2017-11-19T21:06:45.125Z,1.10
2017-11-19T21:09:12.591Z,1.17
2017-11-19T21:11:40.043Z,1.62
2017-11-19T21:14:07.506Z,1.00
2017-11-19T21:16:34.954Z,1.55
2017-11-19T21:19:02.455Z,1.70
2017-11-19T21:21:29.913Z,0.90
2017-11-19T21:23:57.408Z,1.30
2017-11-19T21:28:58.977Z,1.15
2017-11-19T21:31:26.459Z,1.17
2017-11-19T21:33:54.693Z,1.10
2017-11-19T21:36:22.193Z,1.52
2017-11-19T21:38:49.648Z,2.05
2017-11-19T21:41:17.371Z,1.20
2017-11-19T21:43:44.968Z,1.20
2017-11-19T21:46:12.434Z,2.03
2017-11-19T21:48:39.892Z,1.20
2017-11-19T21:51:07.444Z,1.20
2017-11-19T21:53:34.894Z,2.17
2017-11-19T21:56:02.647Z,1.35
2017-11-19T21:58:30.104Z,1.65
2017-11-19T22:00:57.585Z,2.12
2017-11-19T22:03:25.042Z,1.30
2017-11-19T22:05:52.515Z,1.20
2017-11-19T22:08:20.739Z,1.33
2017-11-19T22:10:48.515Z,1.60
2017-11-19T22:13:15.982Z,1.50
2017-11-19T22:15:43.543Z,1.15
2017-11-19T22:18:11.007Z,1.45
2017-11-19T22:20:38.457Z,1.92
2017-11-19T22:23:05.905Z,1.25
2017-11-19T22:25:33.391Z,1.40
2017-11-19T22:28:01.683Z,1.40
2017-11-19T22:30:29.219Z,0.82
2017-11-19T22:32:57.450Z,1.02
2017-11-19T22:35:24.965Z,1.75
2017-11-19T22:37:53.195Z,1.58
2017-11-19T22:40:20.662Z,1.42
2017-11-19T22:42:48.214Z,1.23
2017-11-19T22:45:15.683Z,1.45
2017-11-19T22:47:43.237Z,1.35
2017-11-19T22:50:10.789Z,2.15
2017-11-19T22:52:38.246Z,2.33
2017-11-19T22:55:05.707Z,1.95
2017-11-19T22:57:33.178Z,2.15
2017-11-19T23:00:00.721Z,1.30
2017-11-19T23:02:28.173Z,2.10
2017-11-19T23:04:55.754Z,1.42
2017-11-19T23:07:23.255Z,1.40
2017-11-19T23:09:50.845Z,1.50
2017-11-19T23:12:18.303Z,2.03
2017-11-19T23:14:45.757Z,1.30
2017-11-19T23:17:13.250Z,1.90
2017-11-19T23:19:41.562Z,2.40
2017-11-19T23:22:09.033Z,1.20
2017-11-19T23:24:36.532Z,2.50
2017-11-19T23:27:04.077Z,2.25
2017-11-19T23:29:31.531Z,1.40
2017-11-19T23:31:59.052Z,1.77
2017-11-19T23:34:26.528Z,1.20
2017-11-19T23:36:54.010Z,0.95
2017-11-19T23:39:21.647Z,1.23
2017-11-19T23:41:49.118Z,1.10
2017-11-19T23:44:16.681Z,1.95
2017-11-19T23:46:44.136Z,1.77
2017-11-19T23:49:11.693Z,1.75
2017-11-19T23:51:39.263Z,1.35
2017-11-19T23:54:06.814Z,1.85
2017-11-19T23:56:35.801Z,1.87
2017-11-19T23:59:03.250Z,1.48
